sensor_id;sensor_type;location;lat;lon;timestamp;pressure;altitude;pressure_sealevel;temperature;humidity
64876;BME280;51369;49.862;9.908;2023-05-12T00:02:15;98123.16;;;12.89;84.00
64876;BME280;51369;49.862;9.908;2023-05-12T00:04:41;98122.28;;;12.89;83.75
64876;BME280;51369;49.862;9.908;2023-05-12T00:07:07;98123.16;;;12.89;83.69
64876;BME280;51369;49.862;9.908;2023-05-12T00:09:33;98117.81;;;12.88;83.88
64876;BME280;51369;49.862;9.908;2023-05-12T00:11:58;98117.72;;;12.89;83.91
64876;BME280;51369;49.862;9.908;2023-05-12T00:14:24;98116.84;;;12.89;83.55
64876;BME280;51369;49.862;9.908;2023-05-12T00:16:49;98119.56;;;12.89;83.46
64876;BME280;51369;49.862;9.908;2023-05-12T00:19:19;98117.81;;;12.88;83.84
64876;BME280;51369;49.862;9.908;2023-05-12T00:21:45;98115.97;;;12.88;83.60
64876;BME280;51369;49.862;9.908;2023-05-12T00:24:10;98117.72;;;12.89;83.83
64876;BME280;51369;49.862;9.908;2023-05-12T00:26:36;98123.06;;;12.91;83.22
64876;BME280;51369;49.862;9.908;2023-05-12T00:29:01;98115.97;;;12.88;84.01
64876;BME280;51369;49.862;9.908;2023-05-12T00:31:28;98119.38;;;12.92;83.94
64876;BME280;51369;49.862;9.908;2023-05-12T00:33:54;98122.09;;;12.92;83.47
64876;BME280;51369;49.862;9.908;2023-05-12T00:36:19;98115.72;;;12.93;84.99
64876;BME280;51369;49.862;9.908;2023-05-12T00:38:44;98113.88;;;12.93;85.00
64876;BME280;51369;49.862;9.908;2023-05-12T00:41:10;98111.19;;;12.93;84.78
64876;BME280;51369;49.862;9.908;2023-05-12T00:43:36;98113.88;;;12.93;83.80
64876;BME280;51369;49.862;9.908;2023-05-12T00:46:03;98112.13;;;12.92;83.94
64876;BME280;51369;49.862;9.908;2023-05-12T00:48:30;98113.00;;;12.93;83.68
64876;BME280;51369;49.862;9.908;2023-05-12T00:50:56;98110.22;;;12.94;84.41
64876;BME280;51369;49.862;9.908;2023-05-12T00:53:23;98111.97;;;12.95;83.67
64876;BME280;51369;49.862;9.908;2023-05-12T00:55:48;98111.97;;;12.95;83.52
64876;BME280;51369;49.862;9.908;2023-05-12T00:58:14;98110.13;;;12.96;84.07
64876;BME280;51369;49.862;9.908;2023-05-12T01:00:40;98110.13;;;12.96;84.25
64876;BME280;51369;49.862;9.908;2023-05-12T01:03:06;98113.78;;;12.95;83.32
64876;BME280;51369;49.862;9.908;2023-05-12T01:05:57;98110.22;;;12.94;83.63
64876;BME280;51369;49.862;9.908;2023-05-12T01:08:24;98107.25;;;12.99;83.42
64876;BME280;51369;49.862;9.908;2023-05-12T01:10:50;98104.44;;;13.00;83.55
64876;BME280;51369;49.862;9.908;2023-05-12T01:13:17;98116.16;;;13.01;83.91
64876;BME280;51369;49.862;9.908;2023-05-12T01:15:47;98110.84;;;12.99;84.07
64876;BME280;51369;49.862;9.908;2023-05-12T01:18:18;98111.88;;;12.97;83.51
64876;BME280;51369;49.862;9.908;2023-05-12T01:20:45;98108.13;;;12.99;84.09
64876;BME280;51369;49.862;9.908;2023-05-12T01:23:15;98111.78;;;12.98;83.51
64876;BME280;51369;49.862;9.908;2023-05-12T01:25:43;98110.91;;;12.98;83.43
64876;BME280;51369;49.862;9.908;2023-05-12T01:28:11;98107.34;;;12.97;83.71
64876;BME280;51369;49.862;9.908;2023-05-12T01:30:39;98114.59;;;12.97;83.29
64876;BME280;51369;49.862;9.908;2023-05-12T01:33:09;98114.59;;;12.97;83.97
64876;BME280;51369;49.862;9.908;2023-05-12T01:35:35;98116.41;;;12.96;83.70
64876;BME280;51369;49.862;9.908;2023-05-12T01:38:01;98113.78;;;12.95;83.56
64876;BME280;51369;49.862;9.908;2023-05-12T01:40:26;98112.91;;;12.94;83.67
64876;BME280;51369;49.862;9.908;2023-05-12T01:42:53;98112.91;;;12.94;83.99
64876;BME280;51369;49.862;9.908;2023-05-12T01:45:20;98113.88;;;12.93;83.88
64876;BME280;51369;49.862;9.908;2023-05-12T01:47:46;98120.19;;;12.94;84.50
64876;BME280;51369;49.862;9.908;2023-05-12T01:50:11;98119.31;;;12.93;84.49
64876;BME280;51369;49.862;9.908;2023-05-12T01:52:37;98122.00;;;12.93;84.62
64876;BME280;51369;49.862;9.908;2023-05-12T01:55:06;98122.97;;;12.92;84.58
64876;BME280;51369;49.862;9.908;2023-05-12T01:57:37;98122.09;;;12.92;84.35
64876;BME280;51369;49.862;9.908;2023-05-12T02:00:03;98121.22;;;12.91;83.89
64876;BME280;51369;49.862;9.908;2023-05-12T02:02:38;98122.19;;;12.90;84.30
64876;BME280;51369;49.862;9.908;2023-05-12T02:05:04;98131.28;;;12.89;84.24
64876;BME280;51369;49.862;9.908;2023-05-12T02:07:30;98127.69;;;12.89;84.50
64876;BME280;51369;49.862;9.908;2023-05-12T02:09:56;98123.22;;;12.88;84.14
64876;BME280;51369;49.862;9.908;2023-05-12T02:12:23;98116.94;;;12.87;84.11
64876;BME280;51369;49.862;9.908;2023-05-12T02:14:49;98126.03;;;12.86;83.85
64876;BME280;51369;49.862;9.908;2023-05-12T02:17:16;98129.69;;;12.85;84.77
64876;BME280;51369;49.862;9.908;2023-05-12T02:19:41;98125.16;;;12.86;84.42
64876;BME280;51369;49.862;9.908;2023-05-12T02:22:09;98129.69;;;12.85;84.31
64876;BME280;51369;49.862;9.908;2023-05-12T02:24:34;98126.91;;;12.87;84.99
64876;BME280;51369;49.862;9.908;2023-05-12T02:27:00;98124.28;;;12.85;84.14
64876;BME280;51369;49.862;9.908;2023-05-12T02:29:27;98125.16;;;12.86;84.23
64876;BME280;51369;49.862;9.908;2023-05-12T02:31:52;98126.13;;;12.85;84.52
64876;BME280;51369;49.862;9.908;2023-05-12T02:34:18;98126.13;;;12.85;84.37
64876;BME280;51369;49.862;9.908;2023-05-12T02:36:43;98120.69;;;12.85;84.56
64876;BME280;51369;49.862;9.908;2023-05-12T02:39:10;98129.78;;;12.84;84.01
64876;BME280;51369;49.862;9.908;2023-05-12T02:41:35;98127.94;;;12.84;84.13
64876;BME280;51369;49.862;9.908;2023-05-12T02:44:01;98127.16;;;12.82;84.77
64876;BME280;51369;49.862;9.908;2023-05-12T02:46:26;98119.03;;;12.82;83.68
64876;BME280;51369;49.862;9.908;2023-05-12T02:48:52;98122.69;;;12.81;83.98
64876;BME280;51369;49.862;9.908;2023-05-12T02:51:18;98124.53;;;12.81;83.94
64876;BME280;51369;49.862;9.908;2023-05-12T02:53:43;98124.63;;;12.79;84.64
64876;BME280;51369;49.862;9.908;2023-05-12T02:56:09;98127.31;;;12.79;83.89
64876;BME280;51369;49.862;9.908;2023-05-12T02:58:34;98121.13;;;12.77;84.56
64876;BME280;51369;49.862;9.908;2023-05-12T03:01:00;98119.38;;;12.76;83.68
64876;BME280;51369;49.862;9.908;2023-05-12T03:03:25;98121.22;;;12.76;84.37
64876;BME280;51369;49.862;9.908;2023-05-12T03:05:51;98128.47;;;12.75;84.79
64876;BME280;51369;49.862;9.908;2023-05-12T03:08:17;98122.25;;;12.73;84.73
64876;BME280;51369;49.862;9.908;2023-05-12T03:10:43;98123.22;;;12.72;84.65
64876;BME280;51369;49.862;9.908;2023-05-12T03:13:09;98122.34;;;12.71;84.24
64876;BME280;51369;49.862;9.908;2023-05-12T03:15:34;98119.63;;;12.71;85.01
64876;BME280;51369;49.862;9.908;2023-05-12T03:18:01;98115.25;;;12.69;84.28
64876;BME280;51369;49.862;9.908;2023-05-12T03:20:27;98122.50;;;12.68;84.38
64876;BME280;51369;49.862;9.908;2023-05-12T03:22:53;98121.63;;;12.68;84.57
64876;BME280;51369;49.862;9.908;2023-05-12T03:25:18;98119.88;;;12.67;84.16
64876;BME280;51369;49.862;9.908;2023-05-12T03:27:44;98116.28;;;12.66;85.32
64876;BME280;51369;49.862;9.908;2023-05-12T03:30:10;98118.13;;;12.66;84.11
64876;BME280;51369;49.862;9.908;2023-05-12T03:32:37;98116.38;;;12.65;84.52
64876;BME280;51369;49.862;9.908;2023-05-12T03:35:04;98125.63;;;12.61;84.97
64876;BME280;51369;49.862;9.908;2023-05-12T03:37:30;98125.63;;;12.61;85.18
64876;BME280;51369;49.862;9.908;2023-05-12T03:39:56;98121.19;;;12.60;85.05
64876;BME280;51369;49.862;9.908;2023-05-12T03:42:23;98124.94;;;12.57;85.20
64876;BME280;51369;49.862;9.908;2023-05-12T03:44:51;98122.13;;;12.59;84.95
64876;BME280;51369;49.862;9.908;2023-05-12T03:47:17;98129.31;;;12.60;85.73
64876;BME280;51369;49.862;9.908;2023-05-12T03:49:43;98123.19;;;12.56;85.59
64876;BME280;51369;49.862;9.908;2023-05-12T03:52:08;98130.34;;;12.57;85.09
64876;BME280;51369;49.862;9.908;2023-05-12T03:54:34;98114.25;;;12.54;85.34
64876;BME280;51369;49.862;9.908;2023-05-12T03:57:00;98118.56;;;12.58;85.09
64876;BME280;51369;49.862;9.908;2023-05-12T03:59:25;98130.19;;;12.60;86.25
64876;BME280;51369;49.862;9.908;2023-05-12T04:01:51;98122.06;;;12.60;85.36
64876;BME280;51369;49.862;9.908;2023-05-12T04:04:17;98124.75;;;12.60;85.54
64876;BME280;51369;49.862;9.908;2023-05-12T04:06:43;98129.31;;;12.60;86.21
64876;BME280;51369;49.862;9.908;2023-05-12T04:09:09;98122.06;;;12.60;85.45
64876;BME280;51369;49.862;9.908;2023-05-12T04:11:35;98129.22;;;12.61;85.43
64876;BME280;51369;49.862;9.908;2023-05-12T04:14:01;98130.00;;;12.63;85.71
64876;BME280;51369;49.862;9.908;2023-05-12T04:16:26;98131.75;;;12.64;85.52
64876;BME280;51369;49.862;9.908;2023-05-12T04:18:52;98132.63;;;12.65;85.39
64876;BME280;51369;49.862;9.908;2023-05-12T04:21:18;98133.50;;;12.65;85.92
64876;BME280;51369;49.862;9.908;2023-05-12T04:23:43;98137.00;;;12.67;86.47
64876;BME280;51369;49.862;9.908;2023-05-12T04:26:09;98136.91;;;12.69;85.94
64876;BME280;51369;49.862;9.908;2023-05-12T04:28:34;98137.63;;;12.73;86.05
64876;BME280;51369;49.862;9.908;2023-05-12T04:31:04;98135.78;;;12.73;85.52
64876;BME280;51369;49.862;9.908;2023-05-12T04:33:30;98144.72;;;12.75;85.89
64876;BME280;51369;49.862;9.908;2023-05-12T04:35:56;98138.34;;;12.76;85.68
64876;BME280;51369;49.862;9.908;2023-05-12T04:38:22;98138.25;;;12.78;85.66
64876;BME280;51369;49.862;9.908;2023-05-12T04:40:48;98139.03;;;12.80;85.58
64876;BME280;51369;49.862;9.908;2023-05-12T04:43:14;98139.81;;;12.82;85.76
64876;BME280;51369;49.862;9.908;2023-05-12T04:45:39;98138.88;;;12.83;85.54
64876;BME280;51369;49.862;9.908;2023-05-12T04:48:05;98145.94;;;12.85;86.13
64876;BME280;51369;49.862;9.908;2023-05-12T04:50:30;98138.69;;;12.86;85.40
64876;BME280;51369;49.862;9.908;2023-05-12T04:52:56;98147.69;;;12.86;85.69
64876;BME280;51369;49.862;9.908;2023-05-12T04:55:21;98141.31;;;12.87;85.78
64876;BME280;51369;49.862;9.908;2023-05-12T04:57:47;98150.25;;;12.89;85.35
64876;BME280;51369;49.862;9.908;2023-05-12T05:00:13;98150.25;;;12.89;85.71
64876;BME280;51369;49.862;9.908;2023-05-12T05:02:40;98146.41;;;12.93;85.84
64876;BME280;51369;49.862;9.908;2023-05-12T05:05:07;98154.44;;;12.95;85.21
64876;BME280;51369;49.862;9.908;2023-05-12T05:07:32;98148.06;;;12.96;85.80
64876;BME280;51369;49.862;9.908;2023-05-12T05:09:58;98155.16;;;12.98;85.45
64876;BME280;51369;49.862;9.908;2023-05-12T05:12:24;98157.84;;;12.98;84.97
64876;BME280;51369;49.862;9.908;2023-05-12T05:14:50;98155.16;;;12.98;85.12
64876;BME280;51369;49.862;9.908;2023-05-12T05:17:15;98156.81;;;13.01;85.69
64876;BME280;51369;49.862;9.908;2023-05-12T05:19:41;98152.25;;;13.01;84.34
64876;BME280;51369;49.862;9.908;2023-05-12T05:22:06;98155.75;;;13.03;85.08
64876;BME280;51369;49.862;9.908;2023-05-12T05:24:32;98164.78;;;13.04;85.10
64876;BME280;51369;49.862;9.908;2023-05-12T05:26:57;98164.69;;;13.06;85.21
64876;BME280;51369;49.862;9.908;2023-05-12T05:29:24;98163.91;;;13.03;85.29
64876;BME280;51369;49.862;9.908;2023-05-12T05:31:51;98166.59;;;13.03;85.49
64876;BME280;51369;49.862;9.908;2023-05-12T05:34:16;98153.94;;;13.04;84.35
64876;BME280;51369;49.862;9.908;2023-05-12T05:36:43;98162.06;;;13.04;84.27
64876;BME280;51369;49.862;9.908;2023-05-12T05:39:08;98162.06;;;13.04;85.12
64876;BME280;51369;49.862;9.908;2023-05-12T05:41:35;98160.22;;;13.04;85.14
64876;BME280;51369;49.862;9.908;2023-05-12T05:44:00;98168.34;;;13.04;85.54
64876;BME280;51369;49.862;9.908;2023-05-12T05:46:27;98167.47;;;13.04;84.85
64876;BME280;51369;49.862;9.908;2023-05-12T05:48:53;98171.06;;;13.04;84.67
64876;BME280;51369;49.862;9.908;2023-05-12T05:51:18;98172.81;;;13.06;84.17
64876;BME280;51369;49.862;9.908;2023-05-12T05:53:44;98177.28;;;13.07;84.51
64876;BME280;51369;49.862;9.908;2023-05-12T05:56:11;98177.19;;;13.08;84.81
64876;BME280;51369;49.862;9.908;2023-05-12T05:58:36;98177.09;;;13.10;84.99
64876;BME280;51369;49.862;9.908;2023-05-12T06:01:03;98177.03;;;13.11;84.64
64876;BME280;51369;49.862;9.908;2023-05-12T06:03:29;98176.06;;;13.12;84.43
64876;BME280;51369;49.862;9.908;2023-05-12T06:05:55;98174.13;;;13.14;84.92
64876;BME280;51369;49.862;9.908;2023-05-12T06:08:21;98181.31;;;13.15;84.60
64876;BME280;51369;49.862;9.908;2023-05-12T06:10:46;98172.25;;;13.16;85.15
64876;BME280;51369;49.862;9.908;2023-05-12T06:13:12;98181.25;;;13.17;84.40
64876;BME280;51369;49.862;9.908;2023-05-12T06:15:37;98173.91;;;13.19;85.16
64876;BME280;51369;49.862;9.908;2023-05-12T06:18:03;98183.72;;;13.21;85.41
64876;BME280;51369;49.862;9.908;2023-05-12T06:20:28;98184.50;;;13.23;85.01
64876;BME280;51369;49.862;9.908;2023-05-12T06:22:54;98179.00;;;13.25;84.62
64876;BME280;51369;49.862;9.908;2023-05-12T06:25:19;98176.09;;;13.28;84.93
64876;BME280;51369;49.862;9.908;2023-05-12T06:27:44;98179.59;;;13.30;84.71
64876;BME280;51369;49.862;9.908;2023-05-12T06:30:10;98184.75;;;13.34;84.12
64876;BME280;51369;49.862;9.908;2023-05-12T06:32:36;98183.53;;;13.40;84.78
64876;BME280;51369;49.862;9.908;2023-05-12T06:35:02;98186.88;;;13.45;85.05
64876;BME280;51369;49.862;9.908;2023-05-12T06:37:27;98182.94;;;13.51;85.06
64876;BME280;51369;49.862;9.908;2023-05-12T06:39:52;98195.25;;;13.56;84.50
64876;BME280;51369;49.862;9.908;2023-05-12T06:42:18;98188.69;;;13.60;84.68
64876;BME280;51369;49.862;9.908;2023-05-12T06:44:49;98192.00;;;13.65;84.29
64876;BME280;51369;49.862;9.908;2023-05-12T06:47:14;98196.22;;;13.71;84.41
64876;BME280;51369;49.862;9.908;2023-05-12T06:49:40;98197.88;;;13.74;84.31
64876;BME280;51369;49.862;9.908;2023-05-12T06:52:06;98193.22;;;13.76;84.42
64876;BME280;51369;49.862;9.908;2023-05-12T06:54:31;98191.31;;;13.78;84.09
64876;BME280;51369;49.862;9.908;2023-05-12T06:56:57;98191.13;;;13.81;84.16
64876;BME280;51369;49.862;9.908;2023-05-12T06:59:23;98193.44;;;13.87;83.93
64876;BME280;51369;49.862;9.908;2023-05-12T07:01:49;98192.47;;;13.88;83.42
64876;BME280;51369;49.862;9.908;2023-05-12T07:04:15;98184.94;;;13.93;84.30
64876;BME280;51369;49.862;9.908;2023-05-12T07:06:40;98187.38;;;13.97;83.72
64876;BME280;51369;49.862;9.908;2023-05-12T07:09:06;98185.34;;;14.01;83.78
64876;BME280;51369;49.862;9.908;2023-05-12T07:11:31;98186.16;;;14.03;83.48
64876;BME280;51369;49.862;9.908;2023-05-12T07:13:57;98195.75;;;14.09;83.30
64876;BME280;51369;49.862;9.908;2023-05-12T07:16:22;98182.78;;;14.14;83.41
64876;BME280;51369;49.862;9.908;2023-05-12T07:18:48;98186.97;;;14.19;83.38
64876;BME280;51369;49.862;9.908;2023-05-12T07:21:13;98190.28;;;14.24;83.01
64876;BME280;51369;49.862;9.908;2023-05-12T07:23:39;98186.41;;;14.28;83.45
64876;BME280;51369;49.862;9.908;2023-05-12T07:26:05;98190.59;;;14.34;83.79
64876;BME280;51369;49.862;9.908;2023-05-12T07:28:32;98195.75;;;14.39;83.48
64876;BME280;51369;49.862;9.908;2023-05-12T07:31:05;98195.31;;;14.46;83.35
64876;BME280;51369;49.862;9.908;2023-05-12T07:33:31;98199.41;;;14.53;83.48
64876;BME280;51369;49.862;9.908;2023-05-12T07:35:57;98190.69;;;14.62;82.92
64876;BME280;51369;49.862;9.908;2023-05-12T07:38:22;98202.94;;;14.70;83.20
64876;BME280;51369;49.862;9.908;2023-05-12T07:40:51;98203.41;;;14.76;81.95
64876;BME280;51369;49.862;9.908;2023-05-12T07:43:16;98199.53;;;14.80;81.58
64876;BME280;51369;49.862;9.908;2023-05-12T07:45:42;98197.31;;;14.87;81.58
64876;BME280;51369;49.862;9.908;2023-05-12T07:48:08;98194.22;;;14.93;81.24
64876;BME280;51369;49.862;9.908;2023-05-12T07:50:35;98198.38;;;14.98;80.89
64876;BME280;51369;49.862;9.908;2023-05-12T07:53:01;98203.63;;;15.02;80.08
64876;BME280;51369;49.862;9.908;2023-05-12T07:55:26;98202.56;;;15.04;79.47
64876;BME280;51369;49.862;9.908;2023-05-12T07:57:52;98196.06;;;15.07;78.96
64876;BME280;51369;49.862;9.908;2023-05-12T08:00:17;98200.44;;;15.09;78.88
64876;BME280;51369;49.862;9.908;2023-05-12T08:02:43;98203.91;;;15.11;78.72
64876;BME280;51369;49.862;9.908;2023-05-12T08:05:09;98201.97;;;15.13;78.30
64876;BME280;51369;49.862;9.908;2023-05-12T08:07:36;98194.59;;;15.15;78.35
64876;BME280;51369;49.862;9.908;2023-05-12T08:10:02;98200.72;;;15.19;79.35
64876;BME280;51369;49.862;9.908;2023-05-12T08:12:28;98205.09;;;15.21;78.37
64876;BME280;51369;49.862;9.908;2023-05-12T08:14:54;98200.50;;;15.22;78.10
64876;BME280;51369;49.862;9.908;2023-05-12T08:17:20;98203.03;;;15.25;77.80
64876;BME280;51369;49.862;9.908;2023-05-12T08:19:45;98202.06;;;15.26;77.98
64876;BME280;51369;49.862;9.908;2023-05-12T08:22:11;98205.56;;;15.28;77.76
64876;BME280;51369;49.862;9.908;2023-05-12T08:24:37;98208.19;;;15.29;78.02
64876;BME280;51369;49.862;9.908;2023-05-12T08:27:03;98210.81;;;15.31;77.84
64876;BME280;51369;49.862;9.908;2023-05-12T08:29:29;98207.31;;;15.29;77.76
64876;BME280;51369;49.862;9.908;2023-05-12T08:31:54;98207.31;;;15.29;78.12
64876;BME280;51369;49.862;9.908;2023-05-12T08:34:21;98211.00;;;15.28;78.07
64876;BME280;51369;49.862;9.908;2023-05-12T08:36:46;98218.28;;;15.27;78.41
64876;BME280;51369;49.862;9.908;2023-05-12T08:39:12;98212.75;;;15.29;78.76
64876;BME280;51369;49.862;9.908;2023-05-12T08:41:48;98215.47;;;15.29;78.45
64876;BME280;51369;49.862;9.908;2023-05-12T08:44:18;98224.59;;;15.28;77.42
64876;BME280;51369;49.862;9.908;2023-05-12T08:46:43;98217.31;;;15.28;78.01
64876;BME280;51369;49.862;9.908;2023-05-12T08:49:11;98221.69;;;15.31;78.42
64876;BME280;51369;49.862;9.908;2023-05-12T08:51:42;98226.16;;;15.32;78.12
64876;BME280;51369;49.862;9.908;2023-05-12T08:54:12;98226.06;;;15.34;77.78
64876;BME280;51369;49.862;9.908;2023-05-12T08:56:38;98231.41;;;15.35;78.04
64876;BME280;51369;49.862;9.908;2023-05-12T08:59:04;98234.78;;;15.39;78.44
64876;BME280;51369;49.862;9.908;2023-05-12T09:01:35;98235.47;;;15.42;78.50
64876;BME280;51369;49.862;9.908;2023-05-12T09:04:03;98237.03;;;15.46;77.95
64876;BME280;51369;49.862;9.908;2023-05-12T09:06:29;98227.13;;;15.45;77.58
64876;BME280;51369;49.862;9.908;2023-05-12T09:08:55;98242.47;;;15.46;77.44
64876;BME280;51369;49.862;9.908;2023-05-12T09:11:21;98235.94;;;15.49;78.16
64876;BME280;51369;49.862;9.908;2023-05-12T09:13:53;98237.50;;;15.53;78.57
64876;BME280;51369;49.862;9.908;2023-05-12T09:16:23;98241.47;;;15.61;78.96
64876;BME280;51369;49.862;9.908;2023-05-12T09:18:51;98241.06;;;15.68;78.78
64876;BME280;51369;49.862;9.908;2023-05-12T09:21:18;98236.41;;;15.70;77.48
64876;BME280;51369;49.862;9.908;2023-05-12T09:23:59;98243.69;;;15.69;77.33
64876;BME280;51369;49.862;9.908;2023-05-12T09:26:26;98239.69;;;15.75;77.53
64876;BME280;51369;49.862;9.908;2023-05-12T09:28:53;98240.38;;;15.78;77.53
64876;BME280;51369;49.862;9.908;2023-05-12T09:31:21;98248.22;;;15.83;77.29
64876;BME280;51369;49.862;9.908;2023-05-12T09:33:47;98239.84;;;15.86;77.27
64876;BME280;51369;49.862;9.908;2023-05-12T09:36:18;98247.72;;;15.90;76.74
64876;BME280;51369;49.862;9.908;2023-05-12T09:38:44;98246.25;;;15.99;76.27
64876;BME280;51369;49.862;9.908;2023-05-12T09:41:09;98246.69;;;16.06;76.85
64876;BME280;51369;49.862;9.908;2023-05-12T09:43:35;98246.97;;;16.15;77.33
64876;BME280;51369;49.862;9.908;2023-05-12T09:46:04;98244.19;;;16.30;77.79
64876;BME280;51369;49.862;9.908;2023-05-12T09:48:30;98248.69;;;16.43;76.79
64876;BME280;51369;49.862;9.908;2023-05-12T09:50:55;98239.34;;;16.60;77.10
64876;BME280;51369;49.862;9.908;2023-05-12T09:53:21;98232.31;;;16.70;76.44
64876;BME280;51369;49.862;9.908;2023-05-12T09:55:48;98242.56;;;16.79;75.94
64876;BME280;51369;49.862;9.908;2023-05-12T09:58:15;98249.44;;;16.85;75.10
64876;BME280;51369;49.862;9.908;2023-05-12T10:00:42;98253.72;;;16.89;74.76
64876;BME280;51369;49.862;9.908;2023-05-12T10:03:13;98248.38;;;16.87;73.75
64876;BME280;51369;49.862;9.908;2023-05-12T10:05:54;98252.72;;;16.90;74.36
64876;BME280;51369;49.862;9.908;2023-05-12T10:08:50;98247.81;;;16.95;74.50
64876;BME280;51369;49.862;9.908;2023-05-12T10:11:18;98248.16;;;17.03;74.20
64876;BME280;51369;49.862;9.908;2023-05-12T10:13:44;98245.22;;;17.06;73.41
64876;BME280;51369;49.862;9.908;2023-05-12T10:16:10;98236.16;;;17.06;73.08
64876;BME280;51369;49.862;9.908;2023-05-12T10:18:36;98249.56;;;17.09;72.94
64876;BME280;51369;49.862;9.908;2023-05-12T10:21:02;98248.38;;;17.13;73.28
64876;BME280;51369;49.862;9.908;2023-05-12T10:23:28;98239.88;;;17.17;72.95
64876;BME280;51369;49.862;9.908;2023-05-12T10:25:54;98243.03;;;17.24;73.02
64876;BME280;51369;49.862;9.908;2023-05-12T10:28:27;98247.16;;;17.30;73.46
64876;BME280;51369;49.862;9.908;2023-05-12T10:30:52;98244.56;;;17.28;72.36
64876;BME280;51369;49.862;9.908;2023-05-12T10:33:18;98248.38;;;17.26;72.38
64876;BME280;51369;49.862;9.908;2023-05-12T10:35:44;98245.09;;;17.20;73.24
64876;BME280;51369;49.862;9.908;2023-05-12T10:38:11;98254.59;;;17.15;72.97
64876;BME280;51369;49.862;9.908;2023-05-12T10:40:58;98258.97;;;17.05;71.49
64876;BME280;51369;49.862;9.908;2023-05-12T10:43:27;98256.44;;;17.02;70.94
64876;BME280;51369;49.862;9.908;2023-05-12T10:49:00;98257.22;;;16.91;71.55
64876;BME280;51369;49.862;9.908;2023-05-12T10:51:29;98253.50;;;16.92;71.18
64876;BME280;51369;49.862;9.908;2023-05-12T10:54:00;98253.50;;;16.92;70.43
64876;BME280;51369;49.862;9.908;2023-05-12T10:56:29;98261.34;;;16.97;70.96
64876;BME280;51369;49.862;9.908;2023-05-12T10:59:18;98258.63;;;16.97;71.10
64876;BME280;51369;49.862;9.908;2023-05-12T11:01:57;98263.22;;;16.96;71.87
64876;BME280;51369;49.862;9.908;2023-05-12T11:04:37;98264.50;;;16.90;72.33
64876;BME280;51369;49.862;9.908;2023-05-12T11:07:05;98260.03;;;16.89;73.03
64876;BME280;51369;49.862;9.908;2023-05-12T11:09:40;98263.75;;;16.88;73.04
64876;BME280;51369;49.862;9.908;2023-05-12T11:12:07;98254.16;;;16.96;73.82
64876;BME280;51369;49.862;9.908;2023-05-12T11:14:34;98258.97;;;17.05;73.31
64876;BME280;51369;49.862;9.908;2023-05-12T11:17:00;98249.03;;;17.16;73.82
64876;BME280;51369;49.862;9.908;2023-05-12T11:19:26;98251.75;;;17.29;73.19
64876;BME280;51369;49.862;9.908;2023-05-12T11:21:52;98255.44;;;17.41;72.49
64876;BME280;51369;49.862;9.908;2023-05-12T11:24:20;98251.91;;;17.51;72.50
64876;BME280;51369;49.862;9.908;2023-05-12T11:26:46;98252.56;;;17.55;70.11
64876;BME280;51369;49.862;9.908;2023-05-12T11:29:19;98254.31;;;17.56;69.44
64876;BME280;51369;49.862;9.908;2023-05-12T11:31:51;98259.13;;;17.52;69.09
64876;BME280;51369;49.862;9.908;2023-05-12T11:34:22;98258.34;;;17.50;68.38
64876;BME280;51369;49.862;9.908;2023-05-12T11:36:50;98258.69;;;17.46;67.83
64876;BME280;51369;49.862;9.908;2023-05-12T11:39:17;98261.75;;;17.41;68.16
64876;BME280;51369;49.862;9.908;2023-05-12T11:41:43;98262.53;;;17.43;69.50
64876;BME280;51369;49.862;9.908;2023-05-12T11:44:23;98269.06;;;17.53;71.32
64876;BME280;51369;49.862;9.908;2023-05-12T11:46:56;98263.69;;;17.65;70.62
64876;BME280;51369;49.862;9.908;2023-05-12T11:49:23;98258.13;;;17.79;70.18
64876;BME280;51369;49.862;9.908;2023-05-12T11:51:53;98262.97;;;17.99;70.03
64876;BME280;51369;49.862;9.908;2023-05-12T11:54:19;98266.31;;;18.15;68.63
64876;BME280;51369;49.862;9.908;2023-05-12T11:56:52;98260.25;;;18.23;68.20
64876;BME280;51369;49.862;9.908;2023-05-12T11:59:30;98264.16;;;18.32;66.60
64876;BME280;51369;49.862;9.908;2023-05-12T12:02:00;98262.59;;;18.40;65.00
64876;BME280;51369;49.862;9.908;2023-05-12T12:06:58;98261.91;;;18.73;65.56
64876;BME280;51369;49.862;9.908;2023-05-12T12:09:33;98259.06;;;18.86;65.13
64876;BME280;51369;49.862;9.908;2023-05-12T12:12:01;98255.03;;;19.03;67.14
64876;BME280;51369;49.862;9.908;2023-05-12T12:14:26;98260.47;;;19.14;65.46
64876;BME280;51369;49.862;9.908;2023-05-12T12:16:53;98255.75;;;19.16;64.25
64876;BME280;51369;49.862;9.908;2023-05-12T12:19:18;98261.22;;;19.16;63.68
64876;BME280;51369;49.862;9.908;2023-05-12T12:21:44;98256.75;;;19.15;63.57
64876;BME280;51369;49.862;9.908;2023-05-12T12:24:09;98265.84;;;19.15;62.63
64876;BME280;51369;49.862;9.908;2023-05-12T12:26:35;98264.97;;;19.15;63.27
64876;BME280;51369;49.862;9.908;2023-05-12T12:29:00;98262.72;;;19.20;64.24
64876;BME280;51369;49.862;9.908;2023-05-12T12:31:26;98271.56;;;19.24;63.62
64876;BME280;51369;49.862;9.908;2023-05-12T12:33:51;98267.59;;;19.28;64.07
64876;BME280;51369;49.862;9.908;2023-05-12T12:36:17;98276.69;;;19.28;62.49
64876;BME280;51369;49.862;9.908;2023-05-12T12:38:43;98278.66;;;19.26;61.55
64876;BME280;51369;49.862;9.908;2023-05-12T12:41:08;98279.78;;;19.24;61.43
64876;BME280;51369;49.862;9.908;2023-05-12T12:43:34;98280.78;;;19.23;61.19
64876;BME280;51369;49.862;9.908;2023-05-12T12:45:59;98279.91;;;19.22;61.22
64876;BME280;51369;49.862;9.908;2023-05-12T12:48:24;98267.97;;;19.23;61.63
64876;BME280;51369;49.862;9.908;2023-05-12T12:50:53;98268.81;;;19.24;62.36
64876;BME280;51369;49.862;9.908;2023-05-12T12:53:18;98268.59;;;19.27;62.62
64876;BME280;51369;49.862;9.908;2023-05-12T12:55:44;98266.59;;;19.29;62.12
64876;BME280;51369;49.862;9.908;2023-05-12T12:58:09;98261.00;;;19.30;62.18
64876;BME280;51369;49.862;9.908;2023-05-12T13:00:35;98268.47;;;19.28;61.86
64876;BME280;51369;49.862;9.908;2023-05-12T13:03:01;98266.22;;;19.22;61.20
64876;BME280;51369;49.862;9.908;2023-05-12T13:05:26;98270.31;;;19.16;62.09